SOHO CELIAS Proton Monitor
Solar Wind Parameters for Carrington Rotation 2066 (hour averages)


Listed Parameters:

Measurement time (Year, Month, Day of Month, Day of Year, Hour, Minute, Second)
Proton speed [km/sec]
Proton density [protons per cubic centimeter]
Most probable proton thermal speed [km/sec]
Arrival direction [degrees from north-south, with + meaning FROM the south).
(SPEED=-1 means NOT AVAILABLE)

SOHO spacecraft coordinates: based on SOHO PRE orbit files
GSE X, Y, Z [Earth Radii] 1 RE == 6378 km
Heliocentric Range [106 km],
Heliographic Latitude and Longitude [deg].

FORMAT=(1X,I2,1X,I3,1X,I2,1X,I2,1X,I2,F7.1,3F7.2,3X,3F7.1,F7.1,F7.2,F8.2)



                              CELIAS/MTOF/PM DATA                      SOHO ORBIT DATA              
 InSitu_Start__Time       [km/s]  [cm-3] [km/s]  [deg]      [Re]   [Re]   [Re]  [Mkm]  [deg]  [deg]
 YY MON DY DOY:HH:MM:SS   SPEED     Np     Vth    N/S      GSE_X  GSE_Y  GSE_Z  RANGE  HGLAT  HGLONG
 08 JAN 25  25:09:00:00     540    1.7      45    0.4      242.1   76.1  -14.5  145.7   -5.5   360.0
 08 JAN 25  25:10:00:00     530    2.0      44    0.8      242.2   76.0  -14.5  145.7   -5.5   358.7
 08 JAN 25  25:11:00:00     528    1.9      44    0.2      242.2   75.9  -14.5  145.7   -5.5   358.2
 08 JAN 25  25:12:00:00     513    2.0      43   -0.2      242.3   75.8  -14.5  145.7   -5.5   357.6
 08 JAN 25  25:13:00:00     523    1.9      43    0.3      242.4   75.7  -14.6  145.7   -5.5   357.1
 08 JAN 25  25:14:00:00     520    1.8      44    0.6      242.4   75.6  -14.6  145.7   -5.5   356.5
 08 JAN 25  25:15:00:00     504    2.1      42    0.6      242.5   75.5  -14.6  145.7   -5.5   356.0
 08 JAN 25  25:16:00:00     516    1.9      44   -0.1      242.5   75.4  -14.6  145.7   -5.5   355.4
 08 JAN 25  25:17:00:00     537    1.4      46   -0.7      242.6   75.3  -14.6  145.7   -5.5   354.9
 08 JAN 25  25:18:00:00     521    1.7      45   -1.7      242.6   75.2  -14.7  145.7   -5.5   354.3
 08 JAN 25  25:19:00:00     502    2.1      42   -1.0      242.7   75.1  -14.7  145.7   -5.5   353.8
 08 JAN 25  25:20:00:00     496    2.1      42   -1.5      242.7   75.0  -14.7  145.7   -5.5   353.2
 08 JAN 25  25:21:00:00     494    2.1      40   -1.9      242.8   74.9  -14.7  145.7   -5.5   352.7
 08 JAN 25  25:22:00:00     514    1.6      43   -0.8      242.8   74.7  -14.7  145.7   -5.5   352.1
 08 JAN 25  25:23:00:00     503    2.0      41   -0.8      242.9   74.6  -14.8  145.7   -5.5   351.6
 08 JAN 26  26:00:00:00     487    2.2      39   -0.9      242.9   74.5  -14.8  145.7   -5.5   351.0
 08 JAN 26  26:01:00:00     484    2.2      39   -1.2      243.0   74.4  -14.8  145.7   -5.5   350.5
 08 JAN 26  26:02:00:00     473    2.8      35   -1.4      243.0   74.3  -14.8  145.7   -5.5   349.9
 08 JAN 26  26:03:00:00     480    2.4      36   -1.2      243.1   74.2  -14.8  145.7   -5.5   349.4
 08 JAN 26  26:04:00:00     479    2.4      35   -1.8      243.1   74.1  -14.9  145.7   -5.6   348.8
 08 JAN 26  26:05:00:00     473    2.4      34    0.1      243.2   74.0  -14.9  145.7   -5.6   348.3
 08 JAN 26  26:06:00:00     465    2.4      32   -1.4      243.2   73.9  -14.9  145.7   -5.6   347.7
 08 JAN 26  26:07:00:00     465    2.5      32   -1.5      243.3   73.8  -14.9  145.7   -5.6   347.2
 08 JAN 26  26:08:00:00     465    2.3      33   -0.8      243.3   73.7  -14.9  145.7   -5.6   346.6
 08 JAN 26  26:09:00:00     463    2.5      32   -1.0      243.4   73.6  -14.9  145.7   -5.6   346.1
 08 JAN 26  26:10:00:00     465    2.5      32   -1.1      243.4   73.4  -15.0  145.7   -5.6   345.5
 08 JAN 26  26:11:00:00     465    2.6      31   -0.3      243.5   73.3  -15.0  145.7   -5.6   345.0
 08 JAN 26  26:12:00:00     462    2.6      31    0.4      243.6   73.2  -15.0  145.7   -5.6   344.4
 08 JAN 26  26:13:00:00     462    2.6      31   -0.1      243.6   73.1  -15.0  145.7   -5.6   343.9
 08 JAN 26  26:14:00:00     451    2.5      29   -0.6      243.7   73.0  -15.0  145.7   -5.6   343.3
 08 JAN 26  26:15:00:00     454    2.3      28   -0.6      243.7   72.9  -15.1  145.7   -5.6   342.8
 08 JAN 26  26:16:00:00     455    1.8      31   -0.7      243.8   72.8  -15.1  145.7   -5.6   342.2
 08 JAN 26  26:17:00:00     455    1.8      31   -1.1      243.8   72.7  -15.1  145.7   -5.6   341.7
 08 JAN 26  26:18:00:00     453    2.1      28   -1.0      243.9   72.6  -15.1  145.7   -5.6   341.1
 08 JAN 26  26:19:00:00     452    2.3      28   -1.1      243.9   72.5  -15.1  145.7   -5.6   340.6
 08 JAN 26  26:20:00:00     450    2.6      27   -2.5      244.0   72.3  -15.2  145.7   -5.6   340.0
 08 JAN 26  26:21:00:00     451    2.5      29   -1.5      244.0   72.2  -15.2  145.7   -5.6   339.5
 08 JAN 26  26:22:00:00     450    2.6      29   -1.7      244.1   72.1  -15.2  145.7   -5.6   338.9
 08 JAN 26  26:23:00:00     447    2.5      25   -2.3      244.1   72.0  -15.2  145.7   -5.6   338.4
 08 JAN 27  27:00:00:00     445    1.8      30   -0.3      244.2   71.9  -15.2  145.7   -5.6   337.8
 08 JAN 27  27:01:00:00     439    1.9      30   -2.2      244.2   71.8  -15.2  145.7   -5.6   337.3
 08 JAN 27  27:02:00:00     432    1.8      31   -1.7      244.3   71.7  -15.3  145.7   -5.6   336.8
 08 JAN 27  27:03:00:00     426    1.7      32   -1.8      244.3   71.6  -15.3  145.7   -5.6   336.2
 08 JAN 27  27:04:00:00     434    1.7      30   -1.8      244.4   71.5  -15.3  145.7   -5.6   335.7
 08 JAN 27  27:05:00:00     426    1.8      30   -1.3      244.4   71.3  -15.3  145.7   -5.6   335.1
 08 JAN 27  27:06:00:00     413    1.6      33   -1.9      244.5   71.2  -15.3  145.7   -5.6   334.6
 08 JAN 27  27:07:00:00     407    1.6      32   -1.8      244.5   71.1  -15.3  145.7   -5.6   334.0
 08 JAN 27  27:08:00:00     406    1.6      32   -1.5      244.6   71.0  -15.4  145.7   -5.7   333.5
 08 JAN 27  27:09:00:00     404    2.0      31   -1.3      244.6   70.9  -15.4  145.7   -5.7   332.9
 08 JAN 27  27:10:00:00     395    2.7      29   -1.2      244.7   70.8  -15.4  145.7   -5.7   332.4
 08 JAN 27  27:11:00:00     392    3.0      28   -0.6      244.7   70.7  -15.4  145.7   -5.7   331.8
 08 JAN 27  27:12:00:00     401    3.0      29   -1.5      244.8   70.6  -15.4  145.7   -5.7   331.3
 08 JAN 27  27:13:00:00     404    2.7      31   -1.2      244.8   70.4  -15.5  145.7   -5.7   330.7
 08 JAN 27  27:14:00:00     413    2.4      30   -2.0      244.9   70.3  -15.5  145.7   -5.7   330.2
 08 JAN 27  27:15:00:00     414    2.3      33   -0.8      244.9   70.2  -15.5  145.7   -5.7   329.6
 08 JAN 27  27:16:00:00     410    3.1      33   -0.5      245.0   70.1  -15.5  145.7   -5.7   329.1
 08 JAN 27  27:17:00:00     407    3.2      31   -0.8      245.1   70.0  -15.5  145.7   -5.7   328.5
 08 JAN 27  27:18:00:00     421    3.5      32   -0.4      245.1   69.9  -15.5  145.7   -5.7   328.0
 08 JAN 27  27:19:00:00     420    3.6      32   -1.0      245.2   69.8  -15.6  145.7   -5.7   327.4
 08 JAN 27  27:20:00:00     399    3.8      30   -2.6      245.2   69.7  -15.6  145.7   -5.7   326.9
 08 JAN 27  27:21:00:00     384    3.5      26   -2.2      245.3   69.5  -15.6  145.7   -5.7   326.3
 08 JAN 27  27:22:00:00     392    3.2      28   -0.8      245.3   69.4  -15.6  145.7   -5.7   325.8
 08 JAN 27  27:23:00:00     380    3.2      25   -1.2      245.4   69.3  -15.6  145.7   -5.7   325.2
 08 JAN 28  28:00:00:00     375    2.1      25   -0.7      245.4   69.2  -15.7  145.7   -5.7   324.7
 08 JAN 28  28:01:00:00     364    2.0      22   -0.1      245.5   69.1  -15.7  145.7   -5.7   324.1
 08 JAN 28  28:02:00:00     355    2.8      21   -0.5      245.5   69.0  -15.7  145.7   -5.7   323.6
 08 JAN 28  28:03:00:00     357    2.7      21    0.1      245.6   68.9  -15.7  145.7   -5.7   323.0
 08 JAN 28  28:04:00:00     357    2.6      21   -0.3      245.6   68.8  -15.7  145.7   -5.7   322.5
 08 JAN 28  28:05:00:00     356    2.5      21   -0.3      245.7   68.6  -15.7  145.7   -5.7   321.9
 08 JAN 28  28:06:00:00     358    2.9      21   -1.3      245.7   68.5  -15.8  145.7   -5.7   321.4
 08 JAN 28  28:07:00:00     366    3.4      22   -1.5      245.8   68.4  -15.8  145.7   -5.7   320.8
 08 JAN 28  28:08:00:00     372    3.8      23   -2.0      245.8   68.3  -15.8  145.7   -5.7   320.3
 08 JAN 28  28:09:00:00     397    2.6      29   -2.9      245.9   68.2  -15.8  145.7   -5.7   319.7
 08 JAN 28  28:10:00:00     381    3.6      25   -2.3      245.9   68.1  -15.8  145.7   -5.7   319.2
 08 JAN 28  28:11:00:00     363    4.3      22   -1.8      246.0   68.0  -15.8  145.7   -5.7   318.6
 08 JAN 28  28:12:00:00     365    4.2      22   -0.7      246.0   67.8  -15.9  145.7   -5.7   318.1
 08 JAN 28  28:13:00:00     375    2.9      24    0.7      246.1   67.7  -15.9  145.7   -5.7   317.5
 08 JAN 28  28:14:00:00     370    2.7      23    0.0      246.1   67.6  -15.9  145.8   -5.8   317.0
 08 JAN 28  28:15:00:00     396    2.0      29    0.6      246.2   67.5  -15.9  145.8   -5.8   316.4
 08 JAN 28  28:16:00:00     404    2.1      30   -0.5      246.2   67.4  -15.9  145.8   -5.8   315.9
 08 JAN 28  28:17:00:00     425    2.1      31    0.0      246.3   67.3  -15.9  145.8   -5.8   315.3
 08 JAN 28  28:18:00:00     429    2.7      30    1.1      246.3   67.1  -16.0  145.8   -5.8   314.8
 08 JAN 28  28:19:00:00     418    2.5      31   -0.3      246.4   67.0  -16.0  145.8   -5.8   314.2
 08 JAN 28  28:20:00:00     420    2.7      31    0.4      246.4   66.9  -16.0  145.8   -5.8   313.7
 08 JAN 28  28:21:00:00     421    2.4      32   -0.4      246.5   66.8  -16.0  145.8   -5.8   313.1
 08 JAN 28  28:22:00:00     426    2.3      32   -0.4      246.5   66.7  -16.0  145.8   -5.8   312.6
 08 JAN 28  28:23:00:00     434    2.5      31   -0.2      246.6   66.6  -16.0  145.8   -5.8   312.0
 08 JAN 29  29:00:00:00     424    3.1      33   -1.5      246.6   66.5  -16.1  145.8   -5.8   311.5
 08 JAN 29  29:01:00:00     420    2.4      34   -1.5      246.7   66.3  -16.1  145.8   -5.8   310.9
 08 JAN 29  29:02:00:00     440    3.9      27    0.6      246.7   66.2  -16.1  145.8   -5.8   310.4
 08 JAN 29  29:03:00:00     425    3.1      32   -0.4      246.8   66.1  -16.1  145.8   -5.8   309.8
 08 JAN 29  29:04:00:00     420    2.5      34   -0.8      246.8   66.0  -16.1  145.8   -5.8   309.3
 08 JAN 29  29:05:00:00     425    1.5      34   -0.3      246.9   65.9  -16.1  145.8   -5.8   308.7
 08 JAN 29  29:06:00:00     431    1.2      31    1.9      246.9   65.8  -16.2  145.8   -5.8   308.2
 08 JAN 29  29:07:00:00     418    2.0      32    2.6      247.0   65.6  -16.2  145.8   -5.8   307.6
 08 JAN 29  29:08:00:00     410    1.9      33    2.8      247.0   65.5  -16.2  145.8   -5.8   307.1
 08 JAN 29  29:09:00:00     403    2.2      31    2.7      247.1   65.4  -16.2  145.8   -5.8   306.5
 08 JAN 29  29:10:00:00     424    2.4      29    3.1      247.1   65.3  -16.2  145.8   -5.8   306.0
 08 JAN 29  29:11:00:00     426    2.2      30    2.1      247.2   65.2  -16.2  145.8   -5.8   305.4
 08 JAN 29  29:12:00:00     419    2.3      30   -0.5      247.2   65.1  -16.3  145.8   -5.8   304.9
 08 JAN 29  29:13:00:00     401    1.5      30    1.6      247.3   64.9  -16.3  145.8   -5.8   304.3
 08 JAN 29  29:14:00:00     400    1.5      29    0.8      247.3   64.8  -16.3  145.8   -5.8   303.8
 08 JAN 29  29:15:00:00     386    1.5      26   -0.2      247.4   64.7  -16.3  145.8   -5.8   303.2
 08 JAN 29  29:16:00:00     397    1.2      28    0.1      247.4   64.6  -16.3  145.8   -5.8   302.7
 08 JAN 29  29:17:00:00     382    1.6      25    0.7      247.5   64.5  -16.3  145.8   -5.8   302.1
 08 JAN 29  29:18:00:00     375    2.0      23    0.2      247.5   64.4  -16.4  145.8   -5.8   301.6
 08 JAN 29  29:19:00:00     378    2.2      24   -0.4      247.6   64.2  -16.4  145.8   -5.8   301.0
 08 JAN 29  29:20:00:00     375    2.5      24   -0.6      247.6   64.1  -16.4  145.8   -5.9   300.5
 08 JAN 29  29:21:00:00     387    1.9      26   -0.2      247.7   64.0  -16.4  145.8   -5.9   299.9
 08 JAN 29  29:22:00:00     360    3.0      21   -0.6      247.7   63.9  -16.4  145.8   -5.9   299.4
 08 JAN 29  29:23:00:00     375    2.3      24    0.4      247.8   63.8  -16.4  145.8   -5.9   298.8
 08 JAN 30  30:00:00:00     431    2.0      34    1.3      247.8   63.7  -16.5  145.8   -5.9   298.3
 08 JAN 30  30:01:00:00     428    2.3      34    2.5      247.9   63.5  -16.5  145.8   -5.9   297.7
 08 JAN 30  30:02:00:00     409    2.0      33    1.5      247.9   63.4  -16.5  145.8   -5.9   297.2
 08 JAN 30  30:03:00:00     405    1.7      32    1.1      248.0   63.3  -16.5  145.8   -5.9   296.6
 08 JAN 30  30:04:00:00     410    2.2      32    0.2      248.0   63.2  -16.5  145.8   -5.9   296.1
 08 JAN 30  30:05:00:00     408    1.7      31   -1.3      248.1   63.1  -16.5  145.8   -5.9   295.5
 08 JAN 30  30:06:00:00     383    2.5      26   -1.1      248.1   62.9  -16.5  145.8   -5.9   295.0
 08 JAN 30  30:07:00:00     366    3.0      22   -1.5      248.1   62.8  -16.6  145.8   -5.9   294.4
 08 JAN 30  30:08:00:00     371    2.8      23   -1.3      248.2   62.7  -16.6  145.8   -5.9   293.9
 08 JAN 30  30:09:00:00     373    2.2      24   -0.6      248.2   62.6  -16.6  145.8   -5.9   293.3
 08 JAN 30  30:10:00:00     379    2.1      26   -0.5      248.3   62.5  -16.6  145.8   -5.9   292.8
 08 JAN 30  30:11:00:00     369    2.5      23   -0.6      248.3   62.3  -16.6  145.8   -5.9   292.2
 08 JAN 30  30:12:00:00     366    2.5      23   -0.5      248.4   62.2  -16.6  145.8   -5.9   291.7
 08 JAN 30  30:13:00:00     360    2.4      22   -0.4      248.4   62.1  -16.7  145.8   -5.9   291.1
 08 JAN 30  30:14:00:00     355    2.5      20   -0.4      248.5   62.0  -16.7  145.8   -5.9   290.6
 08 JAN 30  30:15:00:00     351    2.4      20   -0.2      248.5   61.9  -16.7  145.8   -5.9   290.0
 08 JAN 30  30:16:00:00     348    2.0      20    0.2      248.6   61.8  -16.7  145.8   -5.9   289.5
 08 JAN 30  30:17:00:00     344    2.2      19    0.2      248.6   61.6  -16.7  145.8   -5.9   288.9
 08 JAN 30  30:18:00:00     342    1.9      20    0.6      248.7   61.5  -16.7  145.8   -5.9   288.4
 08 JAN 30  30:19:00:00     343    2.0      20    1.1      248.7   61.4  -16.7  145.8   -5.9   287.8
 08 JAN 30  30:20:00:00     339    2.1      21    1.3      248.8   61.3  -16.8  145.8   -5.9   287.3
 08 JAN 30  30:21:00:00     337    2.2      21    1.9      248.8   61.2  -16.8  145.8   -5.9   286.7
 08 JAN 30  30:22:00:00     336    2.0      21    1.6      248.9   61.0  -16.8  145.8   -5.9   286.2
 08 JAN 30  30:23:00:00     338    2.9      21    2.1      248.9   60.9  -16.8  145.8   -5.9   285.6
 08 JAN 31  31:00:00:00     338    3.3      21    2.4      249.0   60.8  -16.8  145.8   -5.9   285.1
 08 JAN 31  31:01:00:00     329    2.6      20    2.0      249.0   60.7  -16.8  145.8   -5.9   284.5
 08 JAN 31  31:02:00:00     322    1.9      20    1.2      249.1   60.6  -16.9  145.8   -5.9   284.0
 08 JAN 31  31:03:00:00     322    2.2      20    1.8      249.1   60.4  -16.9  145.8   -6.0   283.4
 08 JAN 31  31:04:00:00     325    3.1      20    3.5      249.1   60.3  -16.9  145.8   -6.0   282.9
 08 JAN 31  31:05:00:00     324    3.7      19    4.5      249.2   60.2  -16.9  145.8   -6.0   282.3
 08 JAN 31  31:06:00:00     307    4.0      19    3.1      249.2   60.1  -16.9  145.8   -6.0   281.8
 08 JAN 31  31:07:00:00     317    3.6      19    2.0      249.3   60.0  -16.9  145.8   -6.0   281.2
 08 JAN 31  31:08:00:00     333    3.3      19    2.2      249.3   59.8  -16.9  145.8   -6.0   280.7
 08 JAN 31  31:09:00:00     322    2.1      19    1.6      249.4   59.7  -17.0  145.8   -6.0   280.1
 08 JAN 31  31:10:00:00     328    4.1      20    1.5      249.4   59.6  -17.0  145.8   -6.0   279.6
 08 JAN 31  31:11:00:00     323    9.1      21    2.2      249.5   59.5  -17.0  145.8   -6.0   279.0
 08 JAN 31  31:12:00:00     335   18.1      22    3.9      249.5   59.3  -17.0  145.8   -6.0   278.5
 08 JAN 31  31:13:00:00     339   21.7      23    3.4      249.6   59.2  -17.0  145.8   -6.0   277.9
 08 JAN 31  31:14:00:00     364   25.9      22    3.5      249.6   59.1  -17.0  145.8   -6.0   277.4
 08 JAN 31  31:15:00:00     361   15.7      23    5.7      249.7   59.0  -17.0  145.8   -6.0   276.8
 08 JAN 31  31:16:00:00     437    5.9      36    5.2      249.7   58.9  -17.1  145.8   -6.0   276.3
 08 JAN 31  31:17:00:00     457    4.7      36    4.9      249.7   58.7  -17.1  145.8   -6.0   275.7
 08 JAN 31  31:18:00:00     456    5.1      36    3.8      249.8   58.6  -17.1  145.8   -6.0   275.2
 08 JAN 31  31:19:00:00     460    4.5      36    3.4      249.8   58.5  -17.1  145.8   -6.0   274.6
 08 JAN 31  31:20:00:00     460    4.9      32    3.5      249.9   58.4  -17.1  145.8   -6.0   274.1
 08 JAN 31  31:21:00:00     452    4.9      26    3.2      249.9   58.3  -17.1  145.8   -6.0   273.6
 08 JAN 31  31:22:00:00     450    4.5      24    1.3      250.0   58.1  -17.1  145.8   -6.0   273.0
 08 JAN 31  31:23:00:00     448    3.6      27   -0.2      250.0   58.0  -17.2  145.8   -6.0   272.5
 08 FEB  1  32:00:00:00     444    3.2      26   -0.4      250.1   57.9  -17.2  145.8   -6.0   271.9
 08 FEB  1  32:01:00:00     441    3.4      27   -0.8      250.1   57.8  -17.2  145.8   -6.0   271.4
 08 FEB  1  32:02:00:00     439    6.9      32   -0.8      250.2   57.6  -17.2  145.8   -6.0   270.8
 08 FEB  1  32:03:00:00     438    5.0      33   -0.9      250.2   57.5  -17.2  145.8   -6.0   270.3
 08 FEB  1  32:04:00:00     434    5.1      33   -1.6      250.2   57.4  -17.2  145.8   -6.0   269.7
 08 FEB  1  32:05:00:00     439    5.3      34   -2.1      250.3   57.3  -17.2  145.8   -6.0   269.2
 08 FEB  1  32:06:00:00     487    7.7      35   -2.7      250.3   57.2  -17.3  145.8   -6.0   268.6
 08 FEB  1  32:07:00:00     502    6.0      38   -1.9      250.4   57.0  -17.3  145.8   -6.0   268.1
 08 FEB  1  32:08:00:00     536    5.0      42   -2.5      250.4   56.9  -17.3  145.8   -6.0   267.5
 08 FEB  1  32:09:00:00     517    5.2      42   -3.0      250.5   56.8  -17.3  145.8   -6.0   267.0
 08 FEB  1  32:10:00:00     520    4.6      40   -3.0      250.5   56.7  -17.3  145.8   -6.0   266.4
 08 FEB  1  32:11:00:00     563    4.1      42   -2.6      250.6   56.5  -17.3  145.8   -6.1   265.9
 08 FEB  1  32:12:00:00     599    4.1      47   -3.5      250.6   56.4  -17.3  145.8   -6.1   265.3
 08 FEB  1  32:13:00:00     615    5.0      49   -3.8      250.6   56.3  -17.4  145.8   -6.1   264.8
 08 FEB  1  32:14:00:00     589    4.4      45   -2.4      250.7   56.2  -17.4  145.8   -6.1   264.2
 08 FEB  1  32:15:00:00     616    4.2      51   -2.0      250.7   56.1  -17.4  145.8   -6.1   263.7
 08 FEB  1  32:16:00:00     612    3.1      51    0.3      250.8   55.9  -17.4  145.8   -6.1   263.1
 08 FEB  1  32:17:00:00     603    4.5      50   -1.9      250.8   55.8  -17.4  145.8   -6.1   262.6
 08 FEB  1  32:18:00:00     599    5.1      47   -4.2      250.9   55.7  -17.4  145.8   -6.1   262.0
 08 FEB  1  32:19:00:00     587    4.1      47   -1.4      250.9   55.6  -17.4  145.8   -6.1   261.5
 08 FEB  1  32:20:00:00     586    4.2      46    0.2      251.0   55.4  -17.4  145.8   -6.1   260.9
 08 FEB  1  32:21:00:00     601    3.6      49    0.4      251.0   55.3  -17.5  145.8   -6.1   260.4
 08 FEB  1  32:22:00:00     618    3.3      49    0.4      251.0   55.2  -17.5  145.8   -6.1   259.8
 08 FEB  1  32:23:00:00     585    3.6      44   -2.4      251.1   55.1  -17.5  145.8   -6.1   259.3
 08 FEB  2  33:00:00:00     593    3.5      45    1.6      251.1   54.9  -17.5  145.8   -6.1   258.7
 08 FEB  2  33:01:00:00     578    3.5      40   -1.0      251.2   54.8  -17.5  145.8   -6.1   258.2
 08 FEB  2  33:02:00:00     582    2.8      42    1.5      251.2   54.7  -17.5  145.8   -6.1   257.6
 08 FEB  2  33:03:00:00     579    2.6      42    0.7      251.3   54.6  -17.5  145.8   -6.1   257.1
 08 FEB  2  33:04:00:00     575    2.8      41   -0.8      251.3   54.5  -17.6  145.8   -6.1   256.5
 08 FEB  2  33:05:00:00     577    3.0      42    1.3      251.3   54.3  -17.6  145.8   -6.1   256.0
 08 FEB  2  33:06:00:00     583    3.5      42    1.3      251.4   54.2  -17.6  145.8   -6.1   255.4
 08 FEB  2  33:07:00:00     589    3.1      45   -0.9      251.4   54.1  -17.6  145.8   -6.1   254.9
 08 FEB  2  33:08:00:00     595    3.0      45   -0.8      251.5   54.0  -17.6  145.8   -6.1   254.3
 08 FEB  2  33:09:00:00     619    2.4      50   -1.9      251.5   53.8  -17.6  145.8   -6.1   253.8
 08 FEB  2  33:10:00:00     584    2.7      43   -0.8      251.5   53.7  -17.6  145.8   -6.1   253.2
 08 FEB  2  33:11:00:00     603    2.6      46    1.4      251.6   53.6  -17.6  145.8   -6.1   252.7
 08 FEB  2  33:12:00:00     592    2.5      45    1.4      251.6   53.5  -17.7  145.8   -6.1   252.1
 08 FEB  2  33:13:00:00     579    2.4      42    0.7      251.7   53.3  -17.7  145.8   -6.1   251.6
 08 FEB  2  33:14:00:00     577    2.6      41    0.6      251.7   53.2  -17.7  145.8   -6.1   251.0
 08 FEB  2  33:15:00:00     577    2.4      41   -1.3      251.8   53.1  -17.7  145.8   -6.1   250.5
 08 FEB  2  33:16:00:00     589    2.3      46   -0.1      251.8   53.0  -17.7  145.8   -6.1   249.9
 08 FEB  2  33:17:00:00     585    1.7      46    0.7      251.8   52.8  -17.7  145.8   -6.1   249.4
 08 FEB  2  33:18:00:00     604    1.8      48   -3.4      251.9   52.7  -17.7  145.8   -6.1   248.8
 08 FEB  2  33:19:00:00     577    2.6      42   -2.7      251.9   52.6  -17.8  145.8   -6.1   248.3
 08 FEB  2  33:20:00:00     573    3.0      42   -1.2      252.0   52.5  -17.8  145.8   -6.2   247.7
 08 FEB  2  33:21:00:00     581    1.9      44    0.2      252.0   52.3  -17.8  145.8   -6.2   247.2
 08 FEB  2  33:22:00:00     648    2.6      54   -2.6      252.0   52.2  -17.8  145.8   -6.2   246.6
 08 FEB  2  33:23:00:00     580    2.5      41   -3.3      252.1   52.1  -17.8  145.8   -6.2   246.1
 08 FEB  3  34:00:00:00     575    2.9      40   -1.0      252.1   52.0  -17.8  145.8   -6.2   245.5
 08 FEB  3  34:01:00:00     568    2.8      37   -1.0      252.2   51.8  -17.8  145.8   -6.2   245.0
 08 FEB  3  34:02:00:00     577    3.1      40   -2.1      252.2   51.7  -17.8  145.8   -6.2   244.4
 08 FEB  3  34:03:00:00     613    2.3      48   -1.9      252.2   51.6  -17.9  145.8   -6.2   243.9
 08 FEB  3  34:04:00:00     616    2.4      49   -2.3      252.3   51.5  -17.9  145.8   -6.2   243.3
 08 FEB  3  34:05:00:00     582    2.5      42   -0.2      252.3   51.3  -17.9  145.8   -6.2   242.8
 08 FEB  3  34:06:00:00     608    1.7      48    1.5      252.4   51.2  -17.9  145.8   -6.2   242.2
 08 FEB  3  34:07:00:00     622    1.5      48    2.0      252.4   51.1  -17.9  145.8   -6.2   241.7
 08 FEB  3  34:08:00:00     596    2.1      45   -0.2      252.4   50.9  -17.9  145.8   -6.2   241.1
 08 FEB  3  34:09:00:00     608    2.2      47    0.0      252.5   50.8  -17.9  145.8   -6.2   240.6
 08 FEB  3  34:10:00:00     605    1.8      48   -0.6      252.5   50.7  -17.9  145.8   -6.2   240.0
 08 FEB  3  34:11:00:00     612    2.5      48   -4.2      252.6   50.6  -17.9  145.8   -6.2   239.5
 08 FEB  3  34:12:00:00     604    2.6      48   -3.1      252.6   50.4  -18.0  145.8   -6.2   238.9
 08 FEB  3  34:13:00:00     601    1.8      47   -0.1      252.6   50.3  -18.0  145.8   -6.2   238.4
 08 FEB  3  34:14:00:00     604    2.0      47   -1.2      252.7   50.2  -18.0  145.8   -6.2   237.8
 08 FEB  3  34:15:00:00     589    2.6      45   -2.9      252.7   50.1  -18.0  145.8   -6.2   237.3
 08 FEB  3  34:16:00:00     591    2.1      45   -0.8      252.8   49.9  -18.0  145.8   -6.2   236.7
 08 FEB  3  34:17:00:00     578    2.0      42   -3.5      252.8   49.8  -18.0  145.8   -6.2   236.2
 08 FEB  3  34:18:00:00     583    2.7      42   -4.6      252.8   49.7  -18.0  145.8   -6.2   235.6
 08 FEB  3  34:19:00:00     579    2.2      41   -1.8      252.9   49.6  -18.0  145.8   -6.2   235.1
 08 FEB  3  34:20:00:00     582    2.6      42   -4.2      252.9   49.4  -18.1  145.8   -6.2   234.5
 08 FEB  3  34:21:00:00     578    2.1      42    0.3      252.9   49.3  -18.1  145.8   -6.2   234.0
 08 FEB  3  34:22:00:00     591    2.1      45   -3.0      253.0   49.2  -18.1  145.8   -6.2   233.4
 08 FEB  3  34:23:00:00     591    1.8      46   -2.4      253.0   49.0  -18.1  145.8   -6.2   232.9
 08 FEB  4  35:00:00:00     617    1.3      49   -4.9      253.1   48.9  -18.1  145.8   -6.2   232.3
 08 FEB  4  35:01:00:00     615    1.2      50   -1.4      253.1   48.8  -18.1  145.8   -6.2   231.8
 08 FEB  4  35:02:00:00     605    1.5      47   -2.0      253.1   48.7  -18.1  145.8   -6.2   231.2
 08 FEB  4  35:03:00:00     596    0.9      46   -1.7      253.2   48.5  -18.1  145.8   -6.2   230.7
 08 FEB  4  35:04:00:00     585    1.3      43   -1.5      253.2   48.4  -18.1  145.8   -6.2   230.1
 08 FEB  4  35:05:00:00     577    1.4      41   -1.5      253.2   48.3  -18.2  145.8   -6.2   229.6
 08 FEB  4  35:06:00:00     580    1.0      42   -1.9      253.3   48.2  -18.2  145.8   -6.2   229.0
 08 FEB  4  35:07:00:00     581    0.9      43   -1.9      253.3   48.0  -18.2  145.8   -6.3   228.5
 08 FEB  4  35:08:00:00     570    1.0      40   -0.7      253.4   47.9  -18.2  145.8   -6.3   227.9
 08 FEB  4  35:09:00:00     564    1.1      38   -1.5      253.4   47.8  -18.2  145.8   -6.3   227.4
 08 FEB  4  35:10:00:00     563    1.1      38   -3.8      253.4   47.6  -18.2  145.8   -6.3   226.8
 08 FEB  4  35:11:00:00     558    0.9      38   -1.4      253.5   47.5  -18.2  145.9   -6.3   226.3
 08 FEB  4  35:12:00:00     554    0.8      39   -1.5      253.5   47.4  -18.2  145.9   -6.3   225.7
 08 FEB  4  35:13:00:00     557    0.9      41   -1.9      253.5   47.3  -18.3  145.9   -6.3   225.2
 08 FEB  4  35:14:00:00     551    1.0      41   -3.3      253.6   47.1  -18.3  145.9   -6.3   224.6
 08 FEB  4  35:15:00:00     542    0.8      42   -1.1      253.6   47.0  -18.3  145.9   -6.3   224.1
 08 FEB  4  35:16:00:00     547    1.0      42   -0.6      253.6   46.9  -18.3  145.9   -6.3   223.5
 08 FEB  4  35:17:00:00     544    1.0      40    0.1      253.7   46.7  -18.3  145.9   -6.3   223.0
 08 FEB  4  35:18:00:00     537    0.8      40    0.7      253.7   46.6  -18.3  145.9   -6.3   222.4
 08 FEB  4  35:19:00:00     531    0.8      42    0.4      253.8   46.5  -18.3  145.9   -6.3   221.9
 08 FEB  4  35:20:00:00     511    1.0      38    0.2      253.8   46.4  -18.3  145.9   -6.3   221.3
 08 FEB  4  35:21:00:00     477    1.5      33   -1.5      253.8   46.2  -18.3  145.9   -6.3   220.8
 08 FEB  4  35:22:00:00     478    1.5      31   -0.8      253.9   46.1  -18.4  145.9   -6.3   220.3
 08 FEB  4  35:23:00:00     481    1.5      33   -1.8      253.9   46.0  -18.4  145.9   -6.3   219.7
 08 FEB  5  36:00:00:00     475    1.5      33   -0.2      253.9   45.8  -18.4  145.9   -6.3   219.2
 08 FEB  5  36:01:00:00     467    1.8      30    0.2      254.0   45.7  -18.4  145.9   -6.3   218.6
 08 FEB  5  36:02:00:00     471    1.5      31   -0.6      254.0   45.6  -18.4  145.9   -6.3   218.1
 08 FEB  5  36:03:00:00     467    1.7      30   -1.1      254.0   45.5  -18.4  145.9   -6.3   217.5
 08 FEB  5  36:04:00:00     473    1.6      32   -0.6      254.1   45.3  -18.4  145.9   -6.3   217.0
 08 FEB  5  36:05:00:00     474    1.6      32   -0.4      254.1   45.2  -18.4  145.9   -6.3   216.4
 08 FEB  5  36:06:00:00     470    1.6      31   -0.2      254.1   45.1  -18.4  145.9   -6.3   215.9
 08 FEB  5  36:07:00:00     459    2.2      27    0.3      254.2   44.9  -18.4  145.9   -6.3   215.3
 08 FEB  5  36:08:00:00     463    1.7      28    0.1      254.2   44.8  -18.5  145.9   -6.3   214.8
 08 FEB  5  36:09:00:00     451    2.2      22   -0.5      254.2   44.7  -18.5  145.9   -6.3   214.2
 08 FEB  5  36:10:00:00     450    2.2      22   -0.9      254.3   44.6  -18.5  145.9   -6.3   213.7
 08 FEB  5  36:11:00:00     450    2.1      22   -0.3      254.3   44.4  -18.5  145.9   -6.3   213.1
 08 FEB  5  36:12:00:00     449    1.7      22    0.5      254.3   44.3  -18.5  145.9   -6.3   212.6
 08 FEB  5  36:13:00:00     448    1.5      21    0.5      254.4   44.2  -18.5  145.9   -6.3   212.0
 08 FEB  5  36:14:00:00     448    1.3      22    0.0      254.4   44.0  -18.5  145.9   -6.3   211.5
 08 FEB  5  36:15:00:00     448    1.1      23   -0.4      254.4   43.9  -18.5  145.9   -6.3   210.9
 08 FEB  5  36:16:00:00     448    1.2      22   -0.2      254.5   43.8  -18.5  145.9   -6.3   210.4
 08 FEB  5  36:17:00:00     448    1.1      22   -0.5      254.5   43.6  -18.5  145.9   -6.3   209.8
 08 FEB  5  36:18:00:00     448    0.8      23   -1.1      254.5   43.5  -18.6  145.9   -6.3   209.3
 08 FEB  5  36:19:00:00     443    1.2      21   -1.5      254.6   43.4  -18.6  145.9   -6.4   208.7
 08 FEB  5  36:20:00:00     435    1.0      24   -2.5      254.6   43.2  -18.6  145.9   -6.4   208.2
 08 FEB  5  36:21:00:00     439    1.1      21   -2.3      254.6   43.1  -18.6  145.9   -6.4   207.6
 08 FEB  5  36:22:00:00     441    1.2      19   -4.8      254.7   43.0  -18.6  145.9   -6.4   207.1
 08 FEB  5  36:23:00:00      -1   -1.0      -1   99.0      254.7   42.9  -18.6  145.9   -6.4   206.5
 08 FEB  6  37:00:00:00      -1   -1.0      -1   99.0      254.7   42.7  -18.6  145.9   -6.4   206.0
 08 FEB  6  37:01:00:00      -1   -1.0      -1   99.0      254.7   42.6  -18.6  145.9   -6.4   205.4
 08 FEB  6  37:02:00:00      -1   -1.0      -1   99.0      254.8   42.5  -18.6  145.9   -6.4   204.9
 08 FEB  6  37:03:00:00      -1   -1.0      -1   99.0      254.8   42.3  -18.7  145.9   -6.4   204.3
 08 FEB  6  37:04:00:00      -1   -1.0      -1   99.0      254.8   42.2  -18.7  145.9   -6.4   203.8
 08 FEB  6  37:05:00:00      -1   -1.0      -1   99.0      254.9   42.1  -18.7  145.9   -6.4   203.2
 08 FEB  6  37:06:00:00      -1   -1.0      -1   99.0      254.9   41.9  -18.7  145.9   -6.4   202.7
 08 FEB  6  37:07:00:00     354    4.2      20   -2.6      254.9   41.8  -18.7  145.9   -6.4   202.1
 08 FEB  6  37:08:00:00     351    4.0      19   -2.4      255.0   41.7  -18.7  145.9   -6.4   201.6
 08 FEB  6  37:09:00:00     352    2.8      20   -1.2      255.0   41.5  -18.7  145.9   -6.4   201.0
 08 FEB  6  37:10:00:00     354    2.5      20   -0.4      255.0   41.4  -18.7  145.9   -6.4   200.5
 08 FEB  6  37:11:00:00     354    5.7      20   -2.8      255.1   41.3  -18.7  145.9   -6.4   199.9
 08 FEB  6  37:12:00:00     354    3.7      20   -2.1      255.1   41.1  -18.7  145.9   -6.4   199.4
 08 FEB  6  37:13:00:00     352    4.4      20    1.5      255.1   41.0  -18.7  145.9   -6.4   198.8
 08 FEB  6  37:14:00:00     353    3.7      20    0.9      255.1   40.9  -18.8  145.9   -6.4   198.3
 08 FEB  6  37:15:00:00     350    5.0      18    3.2      255.2   40.8  -18.8  145.9   -6.4   197.7
 08 FEB  6  37:16:00:00     350    5.6      19    4.4      255.2   40.6  -18.8  145.9   -6.4   197.2
 08 FEB  6  37:17:00:00     354    5.7      21    2.2      255.2   40.5  -18.8  145.9   -6.4   196.6
 08 FEB  6  37:18:00:00     355    6.3      20    3.9      255.3   40.4  -18.8  145.9   -6.4   196.1
 08 FEB  6  37:19:00:00     351    5.8      19    3.4      255.3   40.2  -18.8  145.9   -6.4   195.5
 08 FEB  6  37:20:00:00     350    5.4      17    3.2      255.3   40.1  -18.8  145.9   -6.4   195.0
 08 FEB  6  37:21:00:00     350    4.7      20    2.3      255.3   40.0  -18.8  145.9   -6.4   194.4
 08 FEB  6  37:22:00:00     349    3.7      21    1.4      255.4   39.8  -18.8  145.9   -6.4   193.9
 08 FEB  6  37:23:00:00     357    4.2      21    2.3      255.4   39.7  -18.8  145.9   -6.4   193.3
 08 FEB  7  38:00:00:00     355    4.5      20    2.0      255.4   39.6  -18.8  145.9   -6.4   192.8
 08 FEB  7  38:01:00:00     351    3.6      21    0.9      255.5   39.4  -18.9  145.9   -6.4   192.2
 08 FEB  7  38:02:00:00     353    3.1      21   -1.5      255.5   39.3  -18.9  145.9   -6.4   191.7
 08 FEB  7  38:03:00:00     353    4.7      20   -4.6      255.5   39.2  -18.9  145.9   -6.4   191.1
 08 FEB  7  38:04:00:00     351    5.5      20   -5.4      255.5   39.0  -18.9  145.9   -6.4   190.6
 08 FEB  7  38:05:00:00     356    5.0      21   -3.3      255.6   38.9  -18.9  145.9   -6.4   190.0
 08 FEB  7  38:06:00:00     350    3.7      20   -2.8      255.6   38.8  -18.9  145.9   -6.4   189.5
 08 FEB  7  38:07:00:00     349    5.0      20   -3.3      255.6   38.6  -18.9  145.9   -6.4   188.9
 08 FEB  7  38:08:00:00     353    5.0      20   -2.2      255.6   38.5  -18.9  145.9   -6.4   188.4
 08 FEB  7  38:09:00:00     350    5.0      21   -1.6      255.7   38.4  -18.9  145.9   -6.4   187.8
 08 FEB  7  38:10:00:00     351    6.1      21   -2.9      255.7   38.2  -18.9  145.9   -6.5   187.3
 08 FEB  7  38:11:00:00     345    4.3      22   -0.9      255.7   38.1  -18.9  145.9   -6.5   186.7
 08 FEB  7  38:12:00:00     339    3.3      23    1.2      255.8   38.0  -19.0  145.9   -6.5   186.2
 08 FEB  7  38:13:00:00     357    3.9      22    2.0      255.8   37.8  -19.0  145.9   -6.5   185.6
 08 FEB  7  38:14:00:00     363    5.6      23    2.3      255.8   37.7  -19.0  145.9   -6.5   185.1
 08 FEB  7  38:15:00:00     373    7.3      26    4.1      255.8   37.6  -19.0  145.9   -6.5   184.5
 08 FEB  7  38:16:00:00     376    6.5      28    0.0      255.9   37.4  -19.0  145.9   -6.5   184.0
 08 FEB  7  38:17:00:00     377    6.3      29   -0.8      255.9   37.3  -19.0  145.9   -6.5   183.4
 08 FEB  7  38:18:00:00     379    7.2      27   -1.4      255.9   37.2  -19.0  145.9   -6.5   182.9
 08 FEB  7  38:19:00:00     394    5.6      36    4.3      255.9   37.0  -19.0  145.9   -6.5   182.3
 08 FEB  7  38:20:00:00     381    5.3      31    2.4      256.0   36.9  -19.0  145.9   -6.5   181.8
 08 FEB  7  38:21:00:00     387    7.1      26    3.9      256.0   36.8  -19.0  145.9   -6.5   181.2
 08 FEB  7  38:22:00:00     410    5.8      30    2.1      256.0   36.6  -19.0  145.9   -6.5   180.7
 08 FEB  7  38:23:00:00     428    5.9      29    2.8      256.0   36.5  -19.0  145.9   -6.5   180.1
 08 FEB  8  39:00:00:00     443    3.5      24   -0.3      256.1   36.3  -19.1  145.9   -6.5   179.6
 08 FEB  8  39:01:00:00     446    2.4      24   -1.1      256.1   36.2  -19.1  145.9   -6.5   179.0
 08 FEB  8  39:02:00:00     446    1.6      31   -0.9      256.1   36.1  -19.1  145.9   -6.5   178.5
 08 FEB  8  39:03:00:00     446    2.3      17   -0.7      256.1   35.9  -19.1  145.9   -6.5   177.9
 08 FEB  8  39:04:00:00     446    2.2      19   -0.9      256.2   35.8  -19.1  145.9   -6.5   177.4
 08 FEB  8  39:05:00:00     447    1.8      22   -0.9      256.2   35.7  -19.1  145.9   -6.5   176.8
 08 FEB  8  39:06:00:00     446    2.2      19   -0.6      256.2   35.5  -19.1  145.9   -6.5   176.3
 08 FEB  8  39:07:00:00     445    2.0      24   -1.5      256.2   35.4  -19.1  145.9   -6.5   175.7
 08 FEB  8  39:08:00:00     426    1.2      35   -1.1      256.2   35.3  -19.1  145.9   -6.5   175.2
 08 FEB  8  39:09:00:00     425    1.7      33   -1.4      256.3   35.1  -19.1  145.9   -6.5   174.6
 08 FEB  8  39:10:00:00     419    2.4      34   -1.5      256.3   35.0  -19.1  145.9   -6.5   174.1
 08 FEB  8  39:11:00:00      -1   -1.0      -1   99.0      256.3   34.9  -19.1  145.9   -6.5   173.5
 08 FEB  8  39:12:00:00     396    2.1      30   -0.4      256.3   34.7  -19.2  145.9   -6.5   173.0
 08 FEB  8  39:13:00:00     395    1.6      29    0.1      256.4   34.6  -19.2  145.9   -6.5   172.5
 08 FEB  8  39:14:00:00     383    1.8      26    0.1      256.4   34.5  -19.2  145.9   -6.5   171.9
 08 FEB  8  39:15:00:00     368    2.4      23    0.0      256.4   34.3  -19.2  145.9   -6.5   171.4
 08 FEB  8  39:16:00:00     363    2.7      22   -0.2      256.4   34.2  -19.2  145.9   -6.5   170.8
 08 FEB  8  39:17:00:00     352    3.1      19   -0.2      256.4   34.0  -19.2  145.9   -6.5   170.3
 08 FEB  8  39:18:00:00     352    3.4      20    0.3      256.5   33.9  -19.2  145.9   -6.5   169.7
 08 FEB  8  39:19:00:00     357    3.7      21    0.8      256.5   33.8  -19.2  145.9   -6.5   169.2
 08 FEB  8  39:20:00:00     358    2.8      21   -0.4      256.5   33.6  -19.2  145.9   -6.5   168.6
 08 FEB  8  39:21:00:00     360    3.2      22   -1.2      256.5   33.5  -19.2  145.9   -6.5   168.1
 08 FEB  8  39:22:00:00     359    3.8      21   -1.5      256.6   33.4  -19.2  145.9   -6.5   167.5
 08 FEB  8  39:23:00:00     366    2.9      23   -0.5      256.6   33.2  -19.2  145.9   -6.5   167.0
 08 FEB  9  40:00:00:00     369    2.7      24   -0.1      256.6   33.1  -19.2  145.9   -6.5   166.4
 08 FEB  9  40:01:00:00     365    3.1      23    0.6      256.6   32.9  -19.3  145.9   -6.5   165.9
 08 FEB  9  40:02:00:00     363    3.2      23    1.2      256.6   32.8  -19.3  145.9   -6.6   165.3
 08 FEB  9  40:03:00:00     376    3.4      26    0.6      256.7   32.7  -19.3  145.9   -6.6   164.8
 08 FEB  9  40:04:00:00     387    3.2      29    0.6      256.7   32.5  -19.3  145.9   -6.6   164.2
 08 FEB  9  40:05:00:00     382    3.6      28    0.3      256.7   32.4  -19.3  145.9   -6.6   163.7
 08 FEB  9  40:06:00:00     391    3.3      31   -0.2      256.7   32.3  -19.3  145.9   -6.6   163.1
 08 FEB  9  40:07:00:00     383    3.5      28   -0.4      256.7   32.1  -19.3  145.9   -6.6   162.6
 08 FEB  9  40:08:00:00     387    3.4      29   -0.4      256.8   32.0  -19.3  145.9   -6.6   162.0
 08 FEB  9  40:09:00:00     400    3.4      33   -0.1      256.8   31.8  -19.3  145.9   -6.6   161.5
 08 FEB  9  40:10:00:00     388    3.8      30    0.8      256.8   31.7  -19.3  145.9   -6.6   160.9
 08 FEB  9  40:11:00:00     384    3.8      29   -0.9      256.8   31.6  -19.3  146.0   -6.6   160.4
 08 FEB  9  40:12:00:00     387    3.8      30   -0.7      256.8   31.4  -19.3  146.0   -6.6   159.8
 08 FEB  9  40:13:00:00     387    3.2      30    0.5      256.9   31.3  -19.3  146.0   -6.6   159.3
 08 FEB  9  40:14:00:00     395    3.3      32    0.5      256.9   31.2  -19.4  146.0   -6.6   158.7
 08 FEB  9  40:15:00:00     379    5.1      27    0.7      256.9   31.0  -19.4  146.0   -6.6   158.2
 08 FEB  9  40:16:00:00     379    5.3      26   -1.0      256.9   30.9  -19.4  146.0   -6.6   157.6
 08 FEB  9  40:17:00:00     383    7.0      27   -2.6      256.9   30.7  -19.4  146.0   -6.6   157.1
 08 FEB  9  40:18:00:00     406    8.4      33   -3.3      256.9   30.6  -19.4  146.0   -6.6   156.5
 08 FEB  9  40:19:00:00     408    7.7      34   -2.2      257.0   30.5  -19.4  146.0   -6.6   156.0
 08 FEB  9  40:20:00:00     403    8.5      33   -2.2      257.0   30.3  -19.4  146.0   -6.6   155.4
 08 FEB  9  40:21:00:00     407    7.9      33   -2.6      257.0   30.2  -19.4  146.0   -6.6   154.9
 08 FEB  9  40:22:00:00     424    9.1      34   -1.8      257.0   30.0  -19.4  146.0   -6.6   154.3
 08 FEB  9  40:23:00:00     424   11.1      33   -0.4      257.0   29.9  -19.4  146.0   -6.6   153.8
 08 FEB 10  41:00:00:00     421    9.9      33    0.9      257.1   29.8  -19.4  146.0   -6.6   153.2
 08 FEB 10  41:01:00:00     416   11.8      34   -1.4      257.1   29.6  -19.4  146.0   -6.6   152.7
 08 FEB 10  41:02:00:00     418   14.4      34   -2.0      257.1   29.5  -19.4  146.0   -6.6   152.1
 08 FEB 10  41:03:00:00     412   16.8      35   -1.5      257.1   29.3  -19.4  146.0   -6.6   151.6
 08 FEB 10  41:04:00:00     415   17.6      36   -0.8      257.1   29.2  -19.4  146.0   -6.6   151.0
 08 FEB 10  41:05:00:00     425   14.3      36   -1.5      257.1   29.1  -19.5  146.0   -6.6   150.5
 08 FEB 10  41:06:00:00     421    8.0      38   -4.8      257.2   28.9  -19.5  146.0   -6.6   149.9
 08 FEB 10  41:07:00:00     444    8.6      37   -3.8      257.2   28.8  -19.5  146.0   -6.6   149.4
 08 FEB 10  41:08:00:00     510    6.5      44    0.2      257.2   28.6  -19.5  146.0   -6.6   148.8
 08 FEB 10  41:09:00:00     560    5.1      45   -2.2      257.2   28.5  -19.5  146.0   -6.6   148.3
 08 FEB 10  41:10:00:00     579    4.1      48   -2.8      257.2   28.4  -19.5  146.0   -6.6   147.7
 08 FEB 10  41:11:00:00     585    4.3      48   -0.9      257.2   28.2  -19.5  146.0   -6.6   147.2
 08 FEB 10  41:12:00:00     638    3.5      53   -0.1      257.3   28.1  -19.5  146.0   -6.6   146.6
 08 FEB 10  41:13:00:00     584    6.1      45    0.8      257.3   27.9  -19.5  146.0   -6.6   146.1
 08 FEB 10  41:14:00:00     618    4.8      50   -1.3      257.3   27.8  -19.5  146.0   -6.6   145.5
 08 FEB 10  41:15:00:00     637    4.1      50    0.4      257.3   27.7  -19.5  146.0   -6.6   145.0
 08 FEB 10  41:16:00:00     631    4.1      51   -1.5      257.3   27.5  -19.5  146.0   -6.6   144.4
 08 FEB 10  41:17:00:00     608    3.8      47   -0.7      257.3   27.4  -19.5  146.0   -6.6   143.9
 08 FEB 10  41:18:00:00     594    4.4      45    1.0      257.3   27.2  -19.5  146.0   -6.6   143.3
 08 FEB 10  41:19:00:00     660    3.9      50   -1.2      257.4   27.1  -19.5  146.0   -6.6   142.8
 08 FEB 10  41:20:00:00     618    3.9      48   -0.6      257.4   27.0  -19.6  146.0   -6.6   142.2
 08 FEB 10  41:21:00:00     622    3.6      51   -0.8      257.4   26.8  -19.6  146.0   -6.7   141.7
 08 FEB 10  41:22:00:00     704    3.1      56    0.8      257.4   26.7  -19.6  146.0   -6.7   141.1
 08 FEB 10  41:23:00:00     725    3.5      56   -2.1      257.4   26.5  -19.6  146.0   -6.7   140.6
 08 FEB 11  42:00:00:00     710    3.4      58   -1.1      257.4   26.4  -19.6  146.0   -6.7   140.0
 08 FEB 11  42:01:00:00     699    3.1      56   -1.2      257.4   26.3  -19.6  146.0   -6.7   139.5
 08 FEB 11  42:02:00:00     706    3.1      59   -0.3      257.5   26.1  -19.6  146.0   -6.7   138.9
 08 FEB 11  42:03:00:00     714    3.0      58   -0.6      257.5   26.0  -19.6  146.0   -6.7   138.4
 08 FEB 11  42:04:00:00     726    2.9      57    1.6      257.5   25.8  -19.6  146.0   -6.7   137.8
 08 FEB 11  42:05:00:00     730    2.5      54   -0.2      257.5   25.7  -19.6  146.0   -6.7   137.3
 08 FEB 11  42:06:00:00     747    2.6      52    0.9      257.5   25.5  -19.6  146.0   -6.7   136.7
 08 FEB 11  42:07:00:00     772    3.1      50    0.6      257.5   25.4  -19.6  146.0   -6.7   136.2
 08 FEB 11  42:08:00:00     761    2.7      47    0.2      257.5   25.3  -19.6  146.0   -6.7   135.6
 08 FEB 11  42:09:00:00     762    2.8      47   -1.1      257.6   25.1  -19.6  146.0   -6.7   135.1
 08 FEB 11  42:10:00:00     760    2.3      47   -0.9      257.6   25.0  -19.6  146.0   -6.7   134.5
 08 FEB 11  42:11:00:00     758    2.4      46   -0.9      257.6   24.8  -19.6  146.0   -6.7   134.0
 08 FEB 11  42:12:00:00     750    2.0      46   -1.1      257.6   24.7  -19.6  146.0   -6.7   133.4
 08 FEB 11  42:13:00:00     705    1.6      55   -1.7      257.6   24.5  -19.7  146.0   -6.7   132.9
 08 FEB 11  42:14:00:00     658    1.8      56   -2.2      257.6   24.4  -19.7  146.0   -6.7   132.3
 08 FEB 11  42:15:00:00     650    1.9      56   -1.5      257.6   24.3  -19.7  146.0   -6.7   131.8
 08 FEB 11  42:16:00:00     637    2.7      55   -2.4      257.6   24.1  -19.7  146.0   -6.7   131.2
 08 FEB 11  42:17:00:00     647    2.4      56   -0.3      257.6   24.0  -19.7  146.0   -6.7   130.7
 08 FEB 11  42:18:00:00     713    2.0      56    0.0      257.7   23.8  -19.7  146.0   -6.7   130.1
 08 FEB 11  42:19:00:00     696    1.8      59   -1.9      257.7   23.7  -19.7  146.0   -6.7   129.6
 08 FEB 11  42:20:00:00     683    1.5      55   -0.6      257.7   23.5  -19.7  146.0   -6.7   129.0
 08 FEB 11  42:21:00:00     691    1.5      52   -1.0      257.7   23.4  -19.7  146.0   -6.7   128.5
 08 FEB 11  42:22:00:00     701    1.5      58   -0.7      257.7   23.2  -19.7  146.0   -6.7   128.0
 08 FEB 11  42:23:00:00     751    2.0      54   -1.6      257.7   23.1  -19.7  146.0   -6.7   127.4
 08 FEB 12  43:00:00:00     762    2.2      52   -0.9      257.7   23.0  -19.7  146.0   -6.7   126.9
 08 FEB 12  43:01:00:00     707    1.7      60    0.4      257.7   22.8  -19.7  146.0   -6.7   126.3
 08 FEB 12  43:02:00:00     693    2.2      58   -2.5      257.7   22.7  -19.7  146.0   -6.7   125.8
 08 FEB 12  43:03:00:00     687    2.2      59   -0.5      257.8   22.5  -19.7  146.0   -6.7   125.2
 08 FEB 12  43:04:00:00     693    2.0      58   -0.7      257.8   22.4  -19.7  146.0   -6.7   124.7
 08 FEB 12  43:05:00:00     698    1.9      57   -0.9      257.8   22.2  -19.7  146.0   -6.7   124.1
 08 FEB 12  43:06:00:00     691    1.8      55   -0.5      257.8   22.1  -19.7  146.0   -6.7   123.6
 08 FEB 12  43:07:00:00     685    1.8      56    0.6      257.8   21.9  -19.7  146.0   -6.7   123.0
 08 FEB 12  43:08:00:00     676    1.9      58    0.3      257.8   21.8  -19.8  146.0   -6.7   122.5
 08 FEB 12  43:09:00:00      -1   -1.0      -1   99.0      257.8   21.7  -19.8  146.0   -6.7   121.9
 08 FEB 12  43:10:00:00      -1   -1.0      -1   99.0      257.8   21.5  -19.8  146.0   -6.7   121.4
 08 FEB 12  43:11:00:00      -1   -1.0      -1   99.0      257.8   21.4  -19.8  146.0   -6.7   120.8
 08 FEB 12  43:12:00:00      -1   -1.0      -1   99.0      257.8   21.2  -19.8  146.0   -6.7   120.3
 08 FEB 12  43:13:00:00      -1   -1.0      -1   99.0      257.9   21.1  -19.8  146.0   -6.7   119.7
 08 FEB 12  43:14:00:00      -1   -1.0      -1   99.0      257.9   20.9  -19.8  146.0   -6.7   119.2
 08 FEB 12  43:15:00:00      -1   -1.0      -1   99.0      257.9   20.8  -19.8  146.0   -6.7   118.6
 08 FEB 12  43:16:00:00     599    2.6      48    0.3      257.9   20.6  -19.8  146.0   -6.7   118.1
 08 FEB 12  43:17:00:00     582    2.5      42    0.6      257.9   20.5  -19.8  146.0   -6.7   117.5
 08 FEB 12  43:18:00:00     580    3.2      42   -2.3      257.9   20.3  -19.8  146.0   -6.7   117.0
 08 FEB 12  43:19:00:00     577    3.4      40   -0.3      257.9   20.2  -19.8  146.0   -6.8   116.4
 08 FEB 12  43:20:00:00     581    3.7      42   -0.4      257.9   20.1  -19.8  146.0   -6.8   115.9
 08 FEB 12  43:21:00:00     574    4.0      40   -0.3      257.9   19.9  -19.8  146.0   -6.8   115.3
 08 FEB 12  43:22:00:00     584    3.9      43    0.2      257.9   19.8  -19.8  146.0   -6.8   114.8
 08 FEB 12  43:23:00:00     586    3.5      44    0.0      257.9   19.6  -19.8  146.0   -6.8   114.2
 08 FEB 13  44:00:00:00     590    3.7      45    1.1      258.0   19.5  -19.8  146.0   -6.8   113.7
 08 FEB 13  44:01:00:00      -1   -1.0      -1   99.0      258.0   19.3  -19.8  146.0   -6.8   113.1
 08 FEB 13  44:02:00:00      -1   -1.0      -1   99.0      258.0   19.2  -19.8  146.0   -6.8   112.6
 08 FEB 13  44:03:00:00      -1   -1.0      -1   99.0      258.0   19.0  -19.8  146.0   -6.8   112.0
 08 FEB 13  44:04:00:00      -1   -1.0      -1   99.0      258.0   18.9  -19.9  146.0   -6.8   111.5
 08 FEB 13  44:05:00:00      -1   -1.0      -1   99.0      258.0   18.7  -19.9  146.0   -6.8   110.9
 08 FEB 13  44:06:00:00      -1   -1.0      -1   99.0      258.0   18.6  -19.9  146.0   -6.8   110.4
 08 FEB 13  44:07:00:00      -1   -1.0      -1   99.0      258.0   18.4  -19.9  146.0   -6.8   109.8
 08 FEB 13  44:08:00:00      -1   -1.0      -1   99.0      258.0   18.3  -19.9  146.0   -6.8   109.3
 08 FEB 13  44:09:00:00      -1   -1.0      -1   99.0      258.0   18.1  -19.9  146.0   -6.8   108.7
 08 FEB 13  44:10:00:00     651    2.5      55    1.8      258.0   18.0  -19.9  146.0   -6.8   108.2
 08 FEB 13  44:11:00:00     647    2.5      55    1.9      258.0   17.9  -19.9  146.0   -6.8   107.6
 08 FEB 13  44:12:00:00     636    2.3      54   -0.9      258.0   17.7  -19.9  146.0   -6.8   107.1
 08 FEB 13  44:13:00:00     620    2.4      50   -0.4      258.0   17.6  -19.9  146.1   -6.8   106.5
 08 FEB 13  44:14:00:00     604    2.7      49    0.3      258.1   17.4  -19.9  146.1   -6.8   106.0
 08 FEB 13  44:15:00:00     588    2.8      45   -1.0      258.1   17.3  -19.9  146.1   -6.8   105.4
 08 FEB 13  44:16:00:00     607    2.2      48    0.0      258.1   17.1  -19.9  146.1   -6.8   104.9
 08 FEB 13  44:17:00:00     588    2.4      43   -2.2      258.1   17.0  -19.9  146.1   -6.8   104.3
 08 FEB 13  44:18:00:00     571    2.5      38   -0.4      258.1   16.8  -19.9  146.1   -6.8   103.8
 08 FEB 13  44:19:00:00     573    2.9      39    0.9      258.1   16.7  -19.9  146.1   -6.8   103.2
 08 FEB 13  44:20:00:00     570    2.9      38    0.1      258.1   16.5  -19.9  146.1   -6.8   102.7
 08 FEB 13  44:21:00:00     584    2.3      43    1.4      258.1   16.4  -19.9  146.1   -6.8   102.1
 08 FEB 13  44:22:00:00     583    2.5      43   -0.7      258.1   16.2  -19.9  146.1   -6.8   101.6
 08 FEB 13  44:23:00:00     587    2.4      43   -1.1      258.1   16.1  -19.9  146.1   -6.8   101.0
 08 FEB 14  45:00:00:00     586    2.7      44   -0.1      258.1   15.9  -19.9  146.1   -6.8   100.5
 08 FEB 14  45:01:00:00     598    2.8      47    0.4      258.1   15.8  -19.9  146.1   -6.8    99.9
 08 FEB 14  45:02:00:00     610    2.8      50   -0.2      258.1   15.6  -19.9  146.1   -6.8    99.4
 08 FEB 14  45:03:00:00     607    2.7      50   -0.2      258.1   15.5  -20.0  146.1   -6.8    98.8
 08 FEB 14  45:04:00:00     604    3.1      49   -0.9      258.1   15.3  -20.0  146.1   -6.8    98.3
 08 FEB 14  45:05:00:00     621    2.9      52   -0.2      258.1   15.2  -20.0  146.1   -6.8    97.7
 08 FEB 14  45:06:00:00     605    2.9      48    0.9      258.1   15.0  -20.0  146.1   -6.8    97.2
 08 FEB 14  45:07:00:00     608    2.8      50    0.5      258.1   14.9  -20.0  146.1   -6.8    96.6
 08 FEB 14  45:08:00:00     606    2.5      49    1.0      258.2   14.7  -20.0  146.1   -6.8    96.1
 08 FEB 14  45:09:00:00     589    2.9      45   -0.1      258.2   14.6  -20.0  146.1   -6.8    95.5
 08 FEB 14  45:10:00:00     611    2.7      49   -0.5      258.2   14.4  -20.0  146.1   -6.8    95.0
 08 FEB 14  45:11:00:00     611    2.7      50   -0.2      258.2   14.3  -20.0  146.1   -6.8    94.4
 08 FEB 14  45:12:00:00     614    2.6      52    0.6      258.2   14.1  -20.0  146.1   -6.8    93.9
 08 FEB 14  45:13:00:00     620    2.8      53    0.9      258.2   14.0  -20.0  146.1   -6.8    93.3
 08 FEB 14  45:14:00:00      -1   -1.0      -1   99.0      258.2   13.8  -20.0  146.1   -6.8    92.8
 08 FEB 14  45:15:00:00      -1   -1.0      -1   99.0      258.2   13.7  -20.0  146.1   -6.8    92.2
 08 FEB 14  45:16:00:00      -1   -1.0      -1   99.0      258.2   13.5  -20.0  146.1   -6.8    91.7
 08 FEB 14  45:17:00:00      -1   -1.0      -1   99.0      258.2   13.4  -20.0  146.1   -6.8    91.1
 08 FEB 14  45:18:00:00     616    2.4      51   -1.1      258.2   13.2  -20.0  146.1   -6.8    90.6
 08 FEB 14  45:19:00:00     640    2.4      51    0.6      258.2   13.1  -20.0  146.1   -6.8    90.0
 08 FEB 14  45:20:00:00     629    2.6      52    1.4      258.2   12.9  -20.0  146.1   -6.8    89.5
 08 FEB 14  45:21:00:00     645    2.1      52    1.7      258.2   12.8  -20.0  146.1   -6.8    88.9
 08 FEB 14  45:22:00:00      -1   -1.0      -1   99.0      258.2   12.6  -20.0  146.1   -6.9    88.4
 08 FEB 14  45:23:00:00      -1   -1.0      -1   99.0      258.2   12.5  -20.0  146.1   -6.9    87.8
 08 FEB 15  46:00:00:00      -1   -1.0      -1   99.0      258.2   12.3  -20.0  146.1   -6.9    87.3
 08 FEB 15  46:01:00:00     592    2.6      45   -0.4      258.2   12.2  -20.0  146.1   -6.9    86.8
 08 FEB 15  46:02:00:00     595    3.1      47   -1.1      258.2   12.0  -20.0  146.1   -6.9    86.2
 08 FEB 15  46:03:00:00     587    3.4      45   -0.5      258.2   11.9  -20.0  146.1   -6.9    85.7
 08 FEB 15  46:04:00:00     593    3.3      46   -1.5      258.2   11.7  -20.0  146.1   -6.9    85.1
 08 FEB 15  46:05:00:00     636    2.6      52   -1.9      258.2   11.6  -20.0  146.1   -6.9    84.6
 08 FEB 15  46:06:00:00     623    2.9      53   -0.5      258.2   11.4  -20.0  146.1   -6.9    84.0
 08 FEB 15  46:07:00:00      -1   -1.0      -1   99.0      258.2   11.3  -20.1  146.1   -6.9    83.5
 08 FEB 15  46:08:00:00      -1   -1.0      -1   99.0      258.2   11.1  -20.1  146.1   -6.9    82.9
 08 FEB 15  46:09:00:00     672    1.6      54   -1.6      258.2   11.0  -20.1  146.1   -6.9    82.4
 08 FEB 15  46:10:00:00     686    1.9      53   -1.0      258.2   10.8  -20.1  146.1   -6.9    81.8
 08 FEB 15  46:11:00:00     678    2.0      55   -1.2      258.2   10.7  -20.1  146.1   -6.9    81.3
 08 FEB 15  46:12:00:00     647    2.3      55   -1.5      258.2   10.5  -20.1  146.1   -6.9    80.7
 08 FEB 15  46:13:00:00     661    1.7      53    0.1      258.3   10.3  -20.1  146.1   -6.9    80.2
 08 FEB 15  46:14:00:00     656    1.4      53   -1.0      258.3   10.2  -20.1  146.1   -6.9    79.6
 08 FEB 15  46:15:00:00     644    2.2      55   -0.9      258.3   10.0  -20.1  146.1   -6.9    79.1
 08 FEB 15  46:16:00:00     631    1.9      52   -0.2      258.3    9.9  -20.1  146.1   -6.9    78.5
 08 FEB 15  46:17:00:00     609    2.3      48   -0.2      258.3    9.7  -20.1  146.1   -6.9    78.0
 08 FEB 15  46:18:00:00     582    2.8      43   -0.7      258.3    9.6  -20.1  146.1   -6.9    77.4
 08 FEB 15  46:19:00:00     602    2.7      49   -0.7      258.3    9.4  -20.1  146.1   -6.9    76.9
 08 FEB 15  46:20:00:00     597    2.7      47    0.7      258.3    9.3  -20.1  146.1   -6.9    76.3
 08 FEB 15  46:21:00:00     621    2.0      49    1.7      258.3    9.1  -20.1  146.1   -6.9    75.8
 08 FEB 15  46:22:00:00     598    2.3      46    0.8      258.3    9.0  -20.1  146.1   -6.9    75.2
 08 FEB 15  46:23:00:00     593    2.6      46   -0.1      258.3    8.8  -20.1  146.1   -6.9    74.7
 08 FEB 16  47:00:00:00     599    2.3      47    1.0      258.3    8.7  -20.1  146.1   -6.9    74.1
 08 FEB 16  47:01:00:00     624    1.6      53   -0.8      258.3    8.5  -20.1  146.1   -6.9    73.6
 08 FEB 16  47:02:00:00     606    1.9      48    0.6      258.3    8.4  -20.1  146.1   -6.9    73.0
 08 FEB 16  47:03:00:00     605    1.8      48   -0.3      258.3    8.2  -20.1  146.1   -6.9    72.5
 08 FEB 16  47:04:00:00     585    2.0      43    0.4      258.3    8.1  -20.1  146.1   -6.9    71.9
 08 FEB 16  47:05:00:00     590    1.9      44    0.2      258.3    7.9  -20.1  146.1   -6.9    71.4
 08 FEB 16  47:06:00:00     583    2.0      43   -1.0      258.3    7.8  -20.1  146.1   -6.9    70.8
 08 FEB 16  47:07:00:00     579    2.0      42   -0.9      258.3    7.6  -20.1  146.1   -6.9    70.3
 08 FEB 16  47:08:00:00     567    1.7      37   -0.9      258.3    7.4  -20.1  146.1   -6.9    69.7
 08 FEB 16  47:09:00:00     568    1.7      37   -1.1      258.3    7.3  -20.1  146.1   -6.9    69.2
 08 FEB 16  47:10:00:00     568    1.8      38   -1.7      258.3    7.1  -20.1  146.1   -6.9    68.6
 08 FEB 16  47:11:00:00     567    1.4      39    0.8      258.3    7.0  -20.1  146.1   -6.9    68.1
 08 FEB 16  47:12:00:00     557    1.5      34   -0.3      258.3    6.8  -20.1  146.1   -6.9    67.5
 08 FEB 16  47:13:00:00     561    1.3      41    0.4      258.3    6.7  -20.1  146.1   -6.9    67.0
 08 FEB 16  47:14:00:00     553    1.4      37   -0.4      258.3    6.5  -20.1  146.1   -6.9    66.4
 08 FEB 16  47:15:00:00     554    1.5      37    1.5      258.3    6.4  -20.1  146.1   -6.9    65.9
 08 FEB 16  47:16:00:00     560    1.5      39   -1.0      258.3    6.2  -20.1  146.1   -6.9    65.3
 08 FEB 16  47:17:00:00     562    1.7      37   -2.5      258.3    6.1  -20.1  146.1   -6.9    64.8
 08 FEB 16  47:18:00:00     563    1.7      40   -0.3      258.3    5.9  -20.1  146.1   -6.9    64.2
 08 FEB 16  47:19:00:00     557    1.2      42   -0.3      258.3    5.7  -20.1  146.1   -6.9    63.7
 08 FEB 16  47:20:00:00     554    1.0      38    0.4      258.3    5.6  -20.2  146.1   -6.9    63.1
 08 FEB 16  47:21:00:00     560    0.9      36   -0.4      258.3    5.4  -20.2  146.1   -6.9    62.6
 08 FEB 16  47:22:00:00     559    0.9      34   -1.8      258.3    5.3  -20.2  146.1   -6.9    62.0
 08 FEB 16  47:23:00:00     559    1.1      37   -0.5      258.3    5.1  -20.2  146.1   -6.9    61.5
 08 FEB 17  48:00:00:00     551    1.1      37   -0.3      258.3    5.0  -20.2  146.1   -6.9    60.9
 08 FEB 17  48:01:00:00     562    1.0      39   -1.2      258.3    4.8  -20.2  146.1   -6.9    60.4
 08 FEB 17  48:02:00:00     571    1.5      39   -3.5      258.3    4.7  -20.2  146.1   -6.9    59.8
 08 FEB 17  48:03:00:00     567    1.3      38   -1.5      258.3    4.5  -20.2  146.2   -6.9    59.3
 08 FEB 17  48:04:00:00     563    1.6      35   -1.8      258.3    4.4  -20.2  146.2   -6.9    58.7
 08 FEB 17  48:05:00:00     562    1.4      36   -2.5      258.3    4.2  -20.2  146.2   -6.9    58.2
 08 FEB 17  48:06:00:00     559    1.3      35   -1.6      258.3    4.0  -20.2  146.2   -7.0    57.6
 08 FEB 17  48:07:00:00     558    1.6      35   -3.1      258.3    3.9  -20.2  146.2   -7.0    57.1
 08 FEB 17  48:08:00:00     557    1.1      38   -2.0      258.3    3.7  -20.2  146.2   -7.0    56.5
 08 FEB 17  48:09:00:00     550    1.3      33   -2.6      258.3    3.6  -20.2  146.2   -7.0    56.0
 08 FEB 17  48:10:00:00     549    1.4      36   -2.3      258.3    3.4  -20.2  146.2   -7.0    55.4
 08 FEB 17  48:11:00:00     539    1.4      40   -3.9      258.3    3.3  -20.2  146.2   -7.0    54.9
 08 FEB 17  48:12:00:00     534    1.4      41   -4.4      258.3    3.1  -20.2  146.2   -7.0    54.3
 08 FEB 17  48:13:00:00     522    1.6      43   -4.6      258.3    3.0  -20.2  146.2   -7.0    53.8
 08 FEB 17  48:14:00:00     544    1.0      40   -3.0      258.3    2.8  -20.2  146.2   -7.0    53.2
 08 FEB 17  48:15:00:00     504    1.4      40   -2.6      258.3    2.7  -20.2  146.2   -7.0    52.7
 08 FEB 17  48:16:00:00     479    1.8      34   -2.5      258.3    2.5  -20.2  146.2   -7.0    52.1
 08 FEB 17  48:17:00:00     471    2.0      32   -2.3      258.3    2.3  -20.2  146.2   -7.0    51.6
 08 FEB 17  48:18:00:00     495    1.1      38   -2.1      258.3    2.2  -20.2  146.2   -7.0    51.0
 08 FEB 17  48:19:00:00     502    1.1      39   -2.7      258.3    2.0  -20.2  146.2   -7.0    50.5
 08 FEB 17  48:20:00:00     491    1.6      36   -2.8      258.3    1.9  -20.2  146.2   -7.0    49.9
 08 FEB 17  48:21:00:00     471    2.1      32   -2.2      258.3    1.7  -20.2  146.2   -7.0    49.4
 08 FEB 17  48:22:00:00     466    2.5      30   -2.0      258.3    1.6  -20.2  146.2   -7.0    48.9
 08 FEB 17  48:23:00:00     467    2.4      31   -1.6      258.3    1.4  -20.2  146.2   -7.0    48.3
 08 FEB 18  49:00:00:00     480    1.9      36   -1.2      258.3    1.3  -20.2  146.2   -7.0    47.8
 08 FEB 18  49:01:00:00     469    3.0      32   -2.6      258.2    1.1  -20.2  146.2   -7.0    47.2
 08 FEB 18  49:02:00:00     458    3.2      27   -2.9      258.2    0.9  -20.2  146.2   -7.0    46.7
 08 FEB 18  49:03:00:00     461    2.9      28   -1.7      258.2    0.8  -20.2  146.2   -7.0    46.1
 08 FEB 18  49:04:00:00     457    4.3      26   -4.3      258.2    0.6  -20.2  146.2   -7.0    45.6
 08 FEB 18  49:05:00:00     455    4.8      25   -4.6      258.2    0.5  -20.2  146.2   -7.0    45.0
 08 FEB 18  49:06:00:00     460    4.9      27   -3.5      258.2    0.3  -20.2  146.2   -7.0    44.5
 08 FEB 18  49:07:00:00     466    4.2      30   -2.7      258.2    0.2  -20.2  146.2   -7.0    43.9
 08 FEB 18  49:08:00:00     464    3.7      29   -2.3      258.2    0.0  -20.2  146.2   -7.0    43.4
 08 FEB 18  49:09:00:00     476    4.6      33   -1.4      258.2   -0.2  -20.2  146.2   -7.0    42.8
 08 FEB 18  49:10:00:00     478    4.8      34   -2.2      258.2   -0.3  -20.2  146.2   -7.0    42.3
 08 FEB 18  49:11:00:00     520    4.9      45    0.4      258.2   -0.5  -20.2  146.2   -7.0    41.7
 08 FEB 18  49:12:00:00     534    4.6      45   -0.5      258.2   -0.6  -20.2  146.2   -7.0    41.2
 08 FEB 18  49:13:00:00     535    4.5      44    0.1      258.2   -0.8  -20.2  146.2   -7.0    40.6
 08 FEB 18  49:14:00:00     558    4.4      45    0.9      258.2   -0.9  -20.2  146.2   -7.0    40.1
 08 FEB 18  49:15:00:00     582    4.8      46    2.3      258.2   -1.1  -20.2  146.2   -7.0    39.5
 08 FEB 18  49:16:00:00     572    4.4      44    2.1      258.2   -1.2  -20.2  146.2   -7.0    39.0
 08 FEB 18  49:17:00:00     570    3.5      44    1.4      258.2   -1.4  -20.2  146.2   -7.0    38.4
 08 FEB 18  49:18:00:00     565    3.4      43    0.3      258.2   -1.6  -20.2  146.2   -7.0    37.9
 08 FEB 18  49:19:00:00     567    3.2      41   -1.0      258.2   -1.7  -20.2  146.2   -7.0    37.3
 08 FEB 18  49:20:00:00     570    3.5      40   -1.3      258.2   -1.9  -20.2  146.2   -7.0    36.8
 08 FEB 18  49:21:00:00     564    2.7      41   -0.3      258.2   -2.0  -20.2  146.2   -7.0    36.2
 08 FEB 18  49:22:00:00     561    2.8      37   -0.3      258.2   -2.2  -20.2  146.2   -7.0    35.7
 08 FEB 18  49:23:00:00     586    2.8      43    0.4      258.2   -2.3  -20.2  146.2   -7.0    35.1
 08 FEB 19  50:00:00:00     582    3.5      42    1.3      258.2   -2.5  -20.2  146.2   -7.0    34.6
 08 FEB 19  50:01:00:00     581    3.5      42    1.8      258.2   -2.7  -20.2  146.2   -7.0    34.0
 08 FEB 19  50:02:00:00     589    3.4      44    1.3      258.2   -2.8  -20.2  146.2   -7.0    33.5
 08 FEB 19  50:03:00:00     579    3.4      42   -0.7      258.2   -3.0  -20.2  146.2   -7.0    32.9
 08 FEB 19  50:04:00:00     574    2.9      40   -0.9      258.2   -3.1  -20.2  146.2   -7.0    32.4
 08 FEB 19  50:05:00:00     601    2.6      48   -0.5      258.2   -3.3  -20.2  146.2   -7.0    31.8
 08 FEB 19  50:06:00:00     616    3.1      48    1.6      258.2   -3.4  -20.2  146.2   -7.0    31.3
 08 FEB 19  50:07:00:00     584    4.0      43    0.2      258.2   -3.6  -20.2  146.2   -7.0    30.7
 08 FEB 19  50:08:00:00     585    4.0      44    0.8      258.2   -3.8  -20.2  146.2   -7.0    30.2
 08 FEB 19  50:09:00:00     580    4.3      41    3.1      258.2   -3.9  -20.2  146.2   -7.0    29.6
 08 FEB 19  50:10:00:00     592    3.4      45    1.5      258.2   -4.1  -20.2  146.2   -7.0    29.1
 08 FEB 19  50:11:00:00     581    3.2      42    0.0      258.2   -4.2  -20.2  146.2   -7.0    28.5
 08 FEB 19  50:12:00:00     581    3.3      42   -0.4      258.2   -4.4  -20.2  146.2   -7.0    28.0
 08 FEB 19  50:13:00:00     591    2.7      45    0.1      258.1   -4.5  -20.2  146.2   -7.0    27.4
 08 FEB 19  50:14:00:00     591    2.7      45    0.6      258.1   -4.7  -20.2  146.2   -7.0    26.9
 08 FEB 19  50:15:00:00     592    2.8      45    0.9      258.1   -4.8  -20.2  146.2   -7.0    26.3
 08 FEB 19  50:16:00:00     585    3.0      43    1.2      258.1   -5.0  -20.2  146.2   -7.0    25.8
 08 FEB 19  50:17:00:00     586    2.9      43   -1.2      258.1   -5.2  -20.2  146.2   -7.0    25.2
 08 FEB 19  50:18:00:00     571    2.7      39   -0.7      258.1   -5.3  -20.2  146.2   -7.0    24.7
 08 FEB 19  50:19:00:00     571    2.4      39    0.0      258.1   -5.5  -20.2  146.2   -7.0    24.1
 08 FEB 19  50:20:00:00     571    2.4      39    0.0      258.1   -5.6  -20.2  146.2   -7.0    23.6
 08 FEB 19  50:21:00:00     572    3.0      38    1.6      258.1   -5.8  -20.2  146.2   -7.0    23.0
 08 FEB 19  50:22:00:00      -1   -1.0      -1   99.0      258.1   -5.9  -20.2  146.2   -7.0    22.5
 08 FEB 19  50:23:00:00      -1   -1.0      -1   99.0      258.1   -6.1  -20.2  146.2   -7.0    21.9
 08 FEB 20  51:00:00:00      -1   -1.0      -1   99.0      258.1   -6.3  -20.2  146.2   -7.1    21.4
 08 FEB 20  51:01:00:00      -1   -1.0      -1   99.0      258.1   -6.4  -20.2  146.2   -7.1    20.8
 08 FEB 20  51:02:00:00      -1   -1.0      -1   99.0      258.1   -6.6  -20.2  146.2   -7.1    20.3
 08 FEB 20  51:03:00:00      -1   -1.0      -1   99.0      258.1   -6.7  -20.2  146.2   -7.1    19.7
 08 FEB 20  51:04:00:00      -1   -1.0      -1   99.0      258.1   -6.9  -20.2  146.2   -7.1    19.2
 08 FEB 20  51:05:00:00      -1   -1.0      -1   99.0      258.1   -7.0  -20.2  146.2   -7.1    18.6
 08 FEB 20  51:06:00:00      -1   -1.0      -1   99.0      258.1   -7.2  -20.2  146.2   -7.1    18.1
 08 FEB 20  51:07:00:00      -1   -1.0      -1   99.0      258.1   -7.4  -20.2  146.2   -7.1    17.5
 08 FEB 20  51:08:00:00      -1   -1.0      -1   99.0      258.1   -7.5  -20.2  146.3   -7.1    17.0
 08 FEB 20  51:09:00:00      -1   -1.0      -1   99.0      258.1   -7.7  -20.2  146.3   -7.1    16.4
 08 FEB 20  51:10:00:00     546    1.3      42   -1.2      258.1   -7.8  -20.2  146.3   -7.1    15.9
 08 FEB 20  51:11:00:00     530    1.3      45   -1.1      258.1   -8.0  -20.2  146.3   -7.1    15.3
 08 FEB 20  51:12:00:00     523    1.2      45   -1.3      258.1   -8.1  -20.2  146.3   -7.1    14.8
 08 FEB 20  51:13:00:00     527    1.2      45   -1.6      258.1   -8.3  -20.2  146.3   -7.1    14.2
 08 FEB 20  51:14:00:00     529    1.5      41   -0.8      258.0   -8.5  -20.2  146.3   -7.1    13.7
 08 FEB 20  51:15:00:00      -1   -1.0      -1   99.0      258.0   -8.6  -20.2  146.3   -7.1    13.1
 08 FEB 20  51:16:00:00      -1   -1.0      -1   99.0      258.0   -8.8  -20.2  146.3   -7.1    12.6
 08 FEB 20  51:17:00:00      -1   -1.0      -1   99.0      258.0   -8.9  -20.2  146.3   -7.1    12.0
 08 FEB 20  51:18:00:00      -1   -1.0      -1   99.0      258.0   -9.1  -20.2  146.3   -7.1    11.5
 08 FEB 20  51:19:00:00      -1   -1.0      -1   99.0      258.0   -9.2  -20.2  146.3   -7.1    11.0
 08 FEB 20  51:20:00:00      -1   -1.0      -1   99.0      258.0   -9.4  -20.2  146.3   -7.1    10.4
 08 FEB 20  51:21:00:00      -1   -1.0      -1   99.0      258.0   -9.6  -20.2  146.3   -7.1     9.9
 08 FEB 20  51:22:00:00      -1   -1.0      -1   99.0      258.0   -9.7  -20.2  146.3   -7.1     9.3
 08 FEB 20  51:23:00:00      -1   -1.0      -1   99.0      258.0   -9.9  -20.2  146.3   -7.1     8.8
 08 FEB 21  52:00:00:00     466    2.4      32    0.3      258.0  -10.0  -20.2  146.3   -7.1     8.2
 08 FEB 21  52:01:00:00     469    2.5      33    1.0      258.0  -10.2  -20.2  146.3   -7.1     7.7
 08 FEB 21  52:02:00:00     488    2.9      38    0.1      258.0  -10.3  -20.2  146.3   -7.1     7.1
 08 FEB 21  52:03:00:00     488    3.3      37    0.9      258.0  -10.5  -20.2  146.3   -7.1     6.6
 08 FEB 21  52:04:00:00     477    3.5      35    0.3      258.0  -10.6  -20.2  146.3   -7.1     6.0
 08 FEB 21  52:05:00:00     471    3.5      34    0.8      258.0  -10.8  -20.2  146.3   -7.1     5.5
 08 FEB 21  52:06:00:00     484    3.0      38    1.1      258.0  -11.0  -20.2  146.3   -7.1     4.9
 08 FEB 21  52:07:00:00     476    3.4      37    0.5      258.0  -11.1  -20.2  146.3   -7.1     4.4
 08 FEB 21  52:08:00:00     474    3.3      36    0.5      258.0  -11.3  -20.2  146.3   -7.1     3.8
 08 FEB 21  52:09:00:00     477    3.2      37    0.0      258.0  -11.4  -20.2  146.3   -7.1     3.3
 08 FEB 21  52:10:00:00     465    2.4      32   -0.6      257.9  -11.6  -20.2  146.3   -7.1     2.7
 08 FEB 21  52:11:00:00     482    2.4      36   -1.4      257.9  -11.7  -20.2  146.3   -7.1     2.2
 08 FEB 21  52:12:00:00     497    2.0      42   -1.0      257.9  -11.9  -20.2  146.3   -7.1     1.6